Time;durP1;ratioP1;P1;durP2;ratioP2;P2;SDS_P1;SDS_P2;PMS_P1;PMS_P2;Temp;Humidity;BMP_temperature;BMP_pressure;BME280_temperature;BME280_humidity;BME280_pressure;Samples;Min_cycle;Max_cycle;Signal;HPM_P1;HPM_P2
2023/03/28 00:00:58;;;;;;;2.37;0.93;;;8.30;68.00;;;;;;2461363;55;20964;-69
2023/03/28 00:03:26;;;;;;;2.85;0.90;;;8.30;67.80;;;;;;2239345;56;20979;-69
2023/03/28 00:05:55;;;;;;;1.50;0.70;;;8.30;68.00;;;;;;2237442;56;20968;-71
2023/03/28 00:08:22;;;;;;;1.60;0.77;;;8.30;67.90;;;;;;2238813;56;21614;-69
2023/03/28 00:10:48;;;;;;;2.58;1.23;;;8.30;68.10;;;;;;2461383;55;21782;-73
2023/03/28 00:13:14;;;;;;;2.37;1.10;;;8.30;68.10;;;;;;2462079;55;21083;-69
2023/03/28 00:15:41;;;;;;;4.03;1.40;;;8.20;68.70;;;;;;2238716;56;21028;-68
2023/03/28 00:18:10;;;;;;;2.80;1.35;;;8.20;67.90;;;;;;2237771;56;20999;-68
2023/03/28 00:20:38;;;;;;;2.60;0.93;;;8.20;68.00;;;;;;2238376;56;21073;-69
2023/03/28 00:23:04;;;;;;;2.03;0.80;;;8.20;67.90;;;;;;2237937;56;20999;-69
2023/03/28 00:25:34;;;;;;;1.70;0.80;;;8.20;68.00;;;;;;2238463;56;21100;-68
2023/03/28 00:28:02;;;;;;;1.50;0.80;;;8.20;67.80;;;;;;2239899;56;21059;-67
2023/03/28 00:30:29;;;;;;;2.78;0.85;;;8.10;67.80;;;;;;2238265;56;21095;-69
2023/03/28 00:32:56;;;;;;;2.20;0.80;;;8.10;67.80;;;;;;2237996;56;21022;-68
2023/03/28 00:35:22;;;;;;;2.08;0.77;;;8.10;67.80;;;;;;2238438;55;21044;-68
2023/03/28 00:37:51;;;;;;;1.67;0.70;;;8.10;68.50;;;;;;2461744;55;20933;-68
2023/03/28 00:40:17;;;;;;;2.92;1.00;;;8.10;67.80;;;;;;2462003;56;20972;-69
2023/03/28 00:42:44;;;;;;;2.25;0.85;;;8.00;67.70;;;;;;2238047;56;20960;-70
2023/03/28 00:45:10;;;;;;;2.78;1.02;;;8.00;67.70;;;;;;2237930;56;20996;-68
2023/03/28 00:47:53;;;;;;;2.33;0.80;;;8.00;67.70;;;;;;2238312;56;21723;-68
2023/03/28 00:50:29;;;;;;;;;;;8.00;67.50;;;;;;2242005;55;20988;-69
2023/03/28 00:53:19;;;;;;;1.70;0.60;;;8.00;66.40;;;;;;2237481;56;20093;-69
2023/03/28 00:56:00;;;;;;;1.98;0.77;;;7.90;66.90;;;;;;2461746;55;21067;-67
2023/03/28 00:58:28;;;;;;;1.65;0.70;;;7.90;67.30;;;;;;2460914;56;21060;-70
2023/03/28 01:00:55;;;;;;;2.22;1.00;;;7.80;67.50;;;;;;2461389;55;21016;-70
2023/03/28 01:03:26;;;;;;;2.75;1.23;;;7.80;67.50;;;;;;2238951;56;20972;-69
2023/03/28 01:05:52;;;;;;;1.58;0.68;;;7.80;67.50;;;;;;2237394;55;20978;-68
2023/03/28 01:08:25;;;;;;;2.42;0.80;;;7.80;67.60;;;;;;2462069;55;21540;-68
2023/03/28 01:10:55;;;;;;;3.05;0.80;;;7.70;67.40;;;;;;2237533;56;20971;-67
2023/03/28 01:13:25;;;;;;;1.73;0.70;;;7.70;67.50;;;;;;2237758;55;21375;-68
2023/03/28 01:15:51;;;;;;;1.80;0.73;;;7.70;67.60;;;;;;2460924;56;20952;-70
2023/03/28 01:18:21;;;;;;;2.70;1.05;;;7.60;67.60;;;;;;2237318;56;21047;-69
2023/03/28 01:24:10;;;;;;;2.35;1.00;;;7.60;67.60;;;;;;2237670;56;20972;-68
2023/03/28 01:32:46;;;;;;;1.48;0.70;;;7.60;66.40;;;;;;2461714;55;20971;-68
2023/03/28 01:36:53;;;;;;;1.58;0.62;;;7.60;66.40;;;;;;2462235;56;21896;-69
2023/03/28 01:39:39;;;;;;;1.77;0.65;;;7.50;66.50;;;;;;2238417;56;20980;-68
2023/03/28 01:43:37;;;;;;;1.55;0.70;;;7.50;67.70;;;;;;2238122;56;21040;-69
2023/03/28 01:46:15;;;;;;;1.90;0.70;;;7.40;67.50;;;;;;2237433;56;21027;-69
2023/03/28 01:48:59;;;;;;;3.47;0.80;;;7.40;67.30;;;;;;2461727;56;20948;-68
2023/03/28 01:54:52;;;;;;;2.40;0.90;;;7.40;67.30;;;;;;2238541;56;21011;-68
2023/03/28 01:57:22;;;;;;;1.62;0.70;;;7.30;67.10;;;;;;2241381;56;21020;-69
2023/03/28 02:00:12;;;;;;;1.90;0.80;;;7.30;67.60;;;;;;2459112;55;20978;-69
2023/03/28 02:04:02;;;;;;;2.40;0.77;;;7.20;67.10;;;;;;2237006;56;20952;-68
2023/03/28 02:06:29;;;;;;;1.33;0.65;;;7.20;67.40;;;;;;2461085;56;21472;-69
2023/03/28 02:08:55;;;;;;;1.62;0.65;;;7.10;67.30;;;;;;2236349;55;21037;-69
2023/03/28 02:11:23;;;;;;;2.85;1.20;;;7.10;67.40;;;;;;2237500;56;21028;-69
2023/03/28 02:13:52;;;;;;;2.40;1.00;;;7.10;67.30;;;;;;2460508;56;20976;-68
2023/03/28 02:16:21;;;;;;;1.95;0.90;;;7.00;67.30;;;;;;2241001;55;20978;-69
2023/03/28 02:18:56;;;;;;;2.00;0.90;;;7.00;67.30;;;;;;2235040;56;21001;-69
2023/03/28 02:21:26;;;;;;;3.62;0.93;;;7.00;67.10;;;;;;2237498;56;21127;-68
2023/03/28 02:23:53;;;;;;;2.45;1.10;;;6.90;67.10;;;;;;2236377;56;20999;-68
2023/03/28 02:26:20;;;;;;;2.35;0.90;;;6.90;67.10;;;;;;2237271;55;20976;-68
2023/03/28 02:28:48;;;;;;;1.77;0.80;;;6.80;67.00;;;;;;2236713;56;20968;-69
2023/03/28 02:31:14;;;;;;;3.35;0.85;;;6.80;67.10;;;;;;2236557;56;20988;-68
2023/03/28 02:33:45;;;;;;;3.05;1.00;;;6.80;67.10;;;;;;2237094;56;21171;-68
2023/03/28 02:37:22;;;;;;;2.10;0.93;;;6.70;67.00;;;;;;2236814;55;21730;-68
2023/03/28 02:41:16;;;;;;;3.60;1.27;;;6.70;66.60;;;;;;2460517;56;21067;-68
2023/03/28 02:44:00;;;;;;;4.10;1.50;;;6.70;66.50;;;;;;2239893;56;21272;-70
2023/03/28 02:48:16;;;;;;;2.90;0.95;;;6.60;66.80;;;;;;2236868;55;22010;-69
2023/03/28 02:50:48;;;;;;;1.92;0.80;;;6.60;66.60;;;;;;2236841;56;21036;-68
2023/03/28 02:54:42;;;;;;;2.40;0.80;;;6.50;67.00;;;;;;2237710;55;21459;-68
2023/03/28 02:57:17;;;;;;;2.10;0.90;;;6.50;65.90;;;;;;2237543;55;21376;-67
2023/03/28 02:59:56;;;;;;;3.37;1.00;;;6.40;66.80;;;;;;2237689;55;20955;-68
2023/03/28 03:02:22;;;;;;;2.95;0.88;;;6.40;66.90;;;;;;2238637;56;21128;-68
2023/03/28 03:04:56;;;;;;;2.17;0.90;;;6.30;67.00;;;;;;2461676;56;20948;-68
2023/03/28 03:07:23;;;;;;;2.30;1.10;;;6.30;67.00;;;;;;2462183;55;21429;-69
2023/03/28 03:09:52;;;;;;;2.50;1.10;;;6.20;66.90;;;;;;2461189;55;21016;-69
2023/03/28 03:12:20;;;;;;;2.45;0.80;;;6.20;66.90;;;;;;2238047;55;21801;-68
2023/03/28 03:14:49;;;;;;;3.70;1.30;;;6.20;66.90;;;;;;2237307;55;20940;-68
2023/03/28 03:17:16;;;;;;;3.15;1.48;;;6.10;66.80;;;;;;2238171;55;20987;-68
2023/03/28 03:19:43;;;;;;;4.10;1.10;;;6.10;66.90;;;;;;2238194;56;20960;-68
2023/03/28 03:22:11;;;;;;;2.30;1.10;;;6.00;66.80;;;;;;2238049;56;21990;-68
2023/03/28 03:24:38;;;;;;;6.53;1.30;;;6.00;66.80;;;;;;2238017;56;20964;-68
2023/03/28 03:27:04;;;;;;;2.25;0.90;;;6.00;66.90;;;;;;2237706;55;21016;-68
2023/03/28 03:29:32;;;;;;;2.72;1.10;;;5.90;66.80;;;;;;2462355;56;21437;-68
2023/03/28 03:31:58;;;;;;;3.33;1.60;;;5.90;67.60;;;;;;2240524;56;20882;-68
2023/03/28 03:34:25;;;;;;;2.83;1.30;;;5.90;67.00;;;;;;2461204;55;21039;-67
2023/03/28 03:36:54;;;;;;;2.53;1.20;;;5.90;67.00;;;;;;2237630;56;20968;-69
2023/03/28 03:39:21;;;;;;;3.08;1.10;;;5.80;67.00;;;;;;2462082;56;20984;-69
2023/03/28 03:41:47;;;;;;;2.78;1.05;;;5.80;67.00;;;;;;2237789;55;20956;-68
2023/03/28 03:44:14;;;;;;;2.83;1.10;;;5.80;67.00;;;;;;2238418;56;20936;-69
2023/03/28 03:46:40;;;;;;;3.37;1.33;;;5.70;66.90;;;;;;2461983;56;20980;-68
2023/03/28 03:49:08;;;;;;;3.40;1.05;;;5.70;66.90;;;;;;2462014;56;20971;-69
2023/03/28 03:51:34;;;;;;;2.67;1.30;;;5.70;66.90;;;;;;2237744;56;20996;-68
2023/03/28 03:54:00;;;;;;;2.70;1.20;;;5.60;66.70;;;;;;2461142;55;21056;-69
2023/03/28 03:56:27;;;;;;;2.67;1.10;;;5.60;66.70;;;;;;2237727;56;21903;-68
2023/03/28 03:58:54;;;;;;;4.55;1.25;;;5.60;66.70;;;;;;2461038;56;21300;-67
2023/03/28 04:01:20;;;;;;;2.97;1.05;;;5.50;66.70;;;;;;2238017;55;20975;-69
2023/03/28 04:03:47;;;;;;;4.05;1.50;;;5.50;66.70;;;;;;2240390;56;21078;-69
2023/03/28 04:06:16;;;;;;;3.30;1.25;;;5.40;66.70;;;;;;2461327;55;20998;-68
2023/03/28 04:08:44;;;;;;;4.05;1.23;;;5.40;66.70;;;;;;2460935;56;20964;-68
2023/03/28 04:11:11;;;;;;;2.35;1.10;;;5.40;66.80;;;;;;2461650;55;21029;-68
2023/03/28 04:13:38;;;;;;;4.22;1.15;;;5.30;66.70;;;;;;2238369;56;20952;-68
2023/03/28 04:16:05;;;;;;;3.00;1.67;;;5.30;66.80;;;;;;2461104;56;21100;-69
2023/03/28 04:18:33;;;;;;;13.98;6.20;;;5.20;66.80;;;;;;2462162;56;20972;-69
2023/03/28 04:21:00;;;;;;;17.25;8.20;;;5.20;66.80;;;;;;2236896;55;21027;-69
2023/03/28 04:23:26;;;;;;;12.15;5.93;;;5.20;66.90;;;;;;2461826;55;21011;-68
2023/03/28 04:25:59;;;;;;;7.40;3.65;;;5.20;67.00;;;;;;2460951;55;21104;-69
2023/03/28 04:28:30;;;;;;;;;;;5.10;66.90;;;;;;2241199;55;20971;-68
2023/03/28 04:30:59;;;;;;;6.32;2.87;;;5.10;65.90;;;;;;2460602;55;20095;-68
2023/03/28 04:33:27;;;;;;;4.47;1.90;;;5.10;67.00;;;;;;2237442;56;20996;-68
2023/03/28 04:36:01;;;;;;;3.40;1.70;;;5.10;67.10;;;;;;2461133;56;21028;-68
2023/03/28 04:38:30;;;;;;;4.25;1.70;;;5.00;67.20;;;;;;2238706;56;21023;-68
2023/03/28 04:41:00;;;;;;;4.28;1.90;;;5.00;67.30;;;;;;2460728;55;21066;-68
2023/03/28 04:43:30;;;;;;;3.28;1.70;;;5.00;67.30;;;;;;2236873;56;21047;-69
2023/03/28 04:45:57;;;;;;;3.28;1.40;;;5.00;67.40;;;;;;2237361;56;20952;-68
2023/03/28 04:48:24;;;;;;;3.55;1.50;;;4.90;67.30;;;;;;2238295;56;21043;-68
2023/03/28 04:50:53;;;;;;;5.43;2.00;;;4.90;67.40;;;;;;2460712;55;20988;-68
2023/03/28 04:53:20;;;;;;;3.37;1.60;;;4.90;67.50;;;;;;2461526;56;20975;-68
2023/03/28 04:55:49;;;;;;;5.00;1.73;;;4.90;67.50;;;;;;2461422;55;21043;-68
2023/03/28 04:58:17;;;;;;;3.85;1.55;;;4.90;67.60;;;;;;2237580;55;21032;-68
2023/03/28 05:00:44;;;;;;;4.12;1.70;;;4.80;67.60;;;;;;2237574;56;21007;-68
2023/03/28 05:03:20;;;;;;;4.30;1.90;;;4.80;67.60;;;;;;2237787;55;21902;-71
2023/03/28 05:05:48;;;;;;;4.03;1.80;;;4.80;67.60;;;;;;2461541;56;21028;-68
2023/03/28 05:08:15;;;;;;;4.25;1.83;;;4.80;67.70;;;;;;2238522;56;20956;-68
2023/03/28 05:10:44;;;;;;;3.40;2.00;;;4.80;67.70;;;;;;2461426;55;20989;-68
2023/03/28 05:13:11;;;;;;;5.75;2.97;;;4.80;67.70;;;;;;2241396;56;21638;-68
2023/03/28 05:15:37;;;;;;;3.70;1.70;;;4.80;67.70;;;;;;2242692;56;20962;-68
2023/03/28 05:18:04;;;;;;;3.70;1.60;;;4.80;67.70;;;;;;2236270;56;21435;-68
2023/03/28 05:20:30;;;;;;;3.45;1.60;;;4.80;67.70;;;;;;2462023;55;21112;-68
2023/03/28 05:22:57;;;;;;;4.82;2.15;;;4.80;67.70;;;;;;2460671;55;21049;-68
2023/03/28 05:25:23;;;;;;;3.95;1.70;;;4.80;67.60;;;;;;2237453;55;21253;-70
2023/03/28 05:27:50;;;;;;;3.67;1.62;;;4.70;67.50;;;;;;2460375;56;21071;-69
2023/03/28 05:30:16;;;;;;;3.00;1.50;;;4.70;67.50;;;;;;2461894;56;21460;-69
2023/03/28 05:32:43;;;;;;;4.32;1.98;;;4.70;67.50;;;;;;2237676;56;21541;-69
2023/03/28 05:35:10;;;;;;;5.70;1.80;;;4.70;67.50;;;;;;2238408;56;21048;-68
2023/03/28 05:37:39;;;;;;;5.85;1.70;;;4.70;67.50;;;;;;2461515;56;21065;-67
2023/03/28 05:40:09;;;;;;;4.43;2.17;;;4.60;67.50;;;;;;2219882;57;21039;-68
2023/03/28 05:42:36;;;;;;;4.85;2.50;;;4.60;67.50;;;;;;2238374;55;21032;-68
2023/03/28 05:45:05;;;;;;;5.20;2.40;;;4.60;67.60;;;;;;2236960;55;22226;-67
2023/03/28 05:47:31;;;;;;;4.72;2.37;;;4.60;68.40;;;;;;2238325;55;21461;-68
2023/03/28 05:49:58;;;;;;;4.65;2.00;;;4.60;67.70;;;;;;2236823;56;21060;-68
2023/03/28 05:52:24;;;;;;;5.00;2.37;;;4.60;67.70;;;;;;2237854;56;20964;-68
2023/03/28 05:54:51;;;;;;;4.85;2.15;;;4.60;67.80;;;;;;2239340;56;21518;-67
2023/03/28 05:57:18;;;;;;;4.00;2.05;;;4.50;67.80;;;;;;2461316;55;21467;-69
2023/03/28 05:59:45;;;;;;;5.68;2.20;;;4.50;67.90;;;;;;2237839;55;21553;-68
2023/03/28 06:02:15;;;;;;;4.55;1.90;;;4.50;68.00;;;;;;2244951;55;21032;-67
2023/03/28 06:04:43;;;;;;;4.75;1.98;;;4.50;68.00;;;;;;2244008;56;21769;-69
2023/03/28 06:07:11;;;;;;;6.47;2.08;;;4.50;68.00;;;;;;2460267;56;20956;-68
2023/03/28 06:09:37;;;;;;;3.78;1.90;;;4.50;68.20;;;;;;2461132;55;21055;-67
2023/03/28 06:12:04;;;;;;;3.42;1.87;;;4.50;68.30;;;;;;2460590;55;20992;-69
2023/03/28 06:14:32;;;;;;;4.82;2.37;;;4.60;68.50;;;;;;2238344;55;20956;-68
2023/03/28 06:16:59;;;;;;;5.57;2.25;;;4.60;68.70;;;;;;2461019;56;20988;-68
2023/03/28 06:19:28;;;;;;;5.20;2.53;;;4.60;68.80;;;;;;2237986;55;20968;-69
2023/03/28 06:21:59;;;;;;;4.10;2.05;;;4.60;69.00;;;;;;2237410;56;20964;-68
2023/03/28 06:24:25;;;;;;;4.10;2.05;;;4.60;69.00;;;;;;2238599;56;20991;-68
2023/03/28 06:26:53;;;;;;;7.22;2.20;;;4.70;69.30;;;;;;2237339;56;20984;-68
2023/03/28 06:29:20;;;;;;;5.55;2.45;;;4.70;69.40;;;;;;2238111;55;21007;-69
2023/03/28 06:31:47;;;;;;;5.12;2.53;;;4.70;69.40;;;;;;2237192;55;21163;-68
2023/03/28 06:34:16;;;;;;;4.47;2.40;;;4.70;69.50;;;;;;2237799;55;21000;-69
2023/03/28 06:36:42;;;;;;;5.07;2.15;;;4.80;69.80;;;;;;2461772;56;20984;-68
2023/03/28 06:39:11;;;;;;;4.45;2.20;;;4.80;69.80;;;;;;2238029;55;21014;-67
2023/03/28 06:41:38;;;;;;;5.28;2.22;;;4.90;70.00;;;;;;2238124;56;21075;-68
2023/03/28 06:44:05;;;;;;;4.03;1.73;;;4.90;70.10;;;;;;2242044;55;21030;-69
2023/03/28 06:46:32;;;;;;;4.90;2.03;;;5.00;70.20;;;;;;2460189;55;21095;-68
2023/03/28 06:48:58;;;;;;;4.47;2.12;;;5.00;70.30;;;;;;2461526;55;21513;-68
2023/03/28 06:51:24;;;;;;;3.47;1.65;;;5.10;70.40;;;;;;2238420;56;21039;-69
2023/03/28 06:53:50;;;;;;;3.15;1.60;;;5.10;70.50;;;;;;2237778;55;20991;-67
2023/03/28 06:56:17;;;;;;;4.47;1.80;;;5.20;70.70;;;;;;2462115;56;21080;-70
2023/03/28 06:58:44;;;;;;;3.83;1.90;;;5.30;70.90;;;;;;2461462;56;21374;-69
2023/03/28 07:01:10;;;;;;;4.82;1.60;;;5.30;70.90;;;;;;2237597;56;20956;-70
2023/03/28 07:03:37;;;;;;;4.10;1.77;;;5.40;71.10;;;;;;2238042;56;21906;-69
2023/03/28 07:06:05;;;;;;;3.67;1.80;;;5.50;71.30;;;;;;2237111;56;21076;-68
2023/03/28 07:08:32;;;;;;;3.28;1.85;;;5.50;71.40;;;;;;2238203;56;21139;-70
2023/03/28 07:10:58;;;;;;;6.20;1.80;;;5.60;71.40;;;;;;2237156;56;20956;-69
2023/03/28 07:13:24;;;;;;;3.92;2.10;;;5.70;71.50;;;;;;2462017;56;21800;-69
2023/03/28 07:16:33;;;;;;;5.00;2.25;;;5.80;71.60;;;;;;2237759;55;21044;-70
2023/03/28 07:18:59;;;;;;;4.90;2.37;;;5.90;71.10;;;;;;2460971;55;20974;-70
2023/03/28 07:21:26;;;;;;;4.43;2.05;;;5.90;71.60;;;;;;2245850;56;21002;-70
2023/03/28 07:23:54;;;;;;;4.65;2.25;;;6.00;71.80;;;;;;2458677;55;20964;-68
2023/03/28 07:26:20;;;;;;;6.22;3.53;;;6.10;72.70;;;;;;2238198;56;21004;-70
2023/03/28 07:28:48;;;;;;;7.00;3.55;;;6.20;72.20;;;;;;2237715;56;20987;-69
2023/03/28 07:31:18;;;;;;;6.32;3.10;;;6.30;72.30;;;;;;2460722;56;21079;-69
2023/03/28 07:33:44;;;;;;;6.57;3.17;;;6.40;72.40;;;;;;2461435;56;21016;-70
2023/03/28 07:36:20;;;;;;;5.95;3.00;;;6.50;72.50;;;;;;2238036;56;21043;-69
2023/03/28 07:38:46;;;;;;;;;;;6.60;72.50;;;;;;2240662;56;21396;-71
2023/03/28 07:41:14;;;;;;;5.37;2.30;;;6.70;71.20;;;;;;2237919;56;20648;-70
2023/03/28 07:43:40;;;;;;;5.80;2.50;;;6.70;72.40;;;;;;2462195;55;20980;-71
2023/03/28 07:46:08;;;;;;;4.78;2.17;;;6.80;72.60;;;;;;2237691;55;21039;-71
2023/03/28 07:48:39;;;;;;;5.68;2.08;;;6.90;73.40;;;;;;2462247;55;21092;-70
2023/03/28 07:51:06;;;;;;;3.97;2.10;;;7.00;72.90;;;;;;2237353;55;21756;-71
2023/03/28 07:53:33;;;;;;;3.30;1.77;;;7.10;73.10;;;;;;2461825;56;21052;-70
2023/03/28 07:55:59;;;;;;;6.97;2.67;;;7.20;73.20;;;;;;2461056;56;20960;-71
2023/03/28 07:58:29;;;;;;;4.57;2.33;;;7.30;73.30;;;;;;2461209;55;21817;-70
2023/03/28 08:00:55;;;;;;;4.72;2.70;;;7.40;73.50;;;;;;2236964;56;21571;-70
2023/03/28 08:03:23;;;;;;;5.35;2.70;;;7.50;73.80;;;;;;2238207;56;20960;-70
2023/03/28 08:05:52;;;;;;;4.35;2.62;;;7.60;74.20;;;;;;2461486;56;21007;-71
2023/03/28 08:08:19;;;;;;;4.95;2.45;;;7.80;74.60;;;;;;2461799;55;21052;-72
2023/03/28 08:10:45;;;;;;;4.60;2.33;;;7.90;74.70;;;;;;2237703;56;21401;-70
2023/03/28 08:13:13;;;;;;;6.55;2.83;;;8.10;74.90;;;;;;2461670;56;20980;-71
2023/03/28 08:15:39;;;;;;;4.35;2.37;;;8.20;75.00;;;;;;2461660;56;20956;-70
2023/03/28 08:18:06;;;;;;;4.80;2.58;;;8.40;75.00;;;;;;2239593;56;21061;-71
2023/03/28 08:20:34;;;;;;;4.18;2.47;;;8.50;75.00;;;;;;2238286;56;21052;-70
2023/03/28 08:23:01;;;;;;;6.32;2.12;;;8.70;75.20;;;;;;2461244;56;20948;-72
2023/03/28 08:25:28;;;;;;;5.15;2.50;;;8.80;75.90;;;;;;2462056;56;21568;-69
2023/03/28 08:27:55;;;;;;;6.10;2.45;;;8.90;75.30;;;;;;2237121;55;20952;-71
2023/03/28 08:30:21;;;;;;;5.15;2.42;;;9.10;75.20;;;;;;2238086;56;20964;-70
2023/03/28 08:32:48;;;;;;;6.40;2.55;;;9.10;75.10;;;;;;2237648;56;20948;-70
2023/03/28 08:35:15;;;;;;;4.97;2.20;;;9.40;75.40;;;;;;2460898;55;20980;-71
2023/03/28 08:37:41;;;;;;;6.55;2.70;;;9.50;76.00;;;;;;2237035;56;20968;-71
2023/03/28 08:40:12;;;;;;;5.68;1.92;;;9.70;75.50;;;;;;2237285;56;21020;-71
2023/03/28 08:42:49;;;;;;;3.58;2.03;;;9.80;75.30;;;;;;2242294;56;21572;-71
2023/03/28 08:45:26;;;;;;;4.85;1.95;;;9.90;75.10;;;;;;2237817;56;21016;-72
2023/03/28 08:51:26;;;;;;;4.68;1.87;;;10.10;73.80;;;;;;2461504;56;20965;-71
2023/03/28 08:55:28;;;;;;;4.57;1.45;;;10.20;73.60;;;;;;2460975;56;21047;-71
2023/03/28 08:57:57;;;;;;;2.78;1.12;;;10.50;73.00;;;;;;2237171;56;20964;-71
2023/03/28 09:00:35;;;;;;;4.07;1.98;;;10.60;72.60;;;;;;2461197;56;20971;-70
2023/03/28 09:03:04;;;;;;;3.60;1.33;;;10.70;72.00;;;;;;2461412;56;20980;-71
2023/03/28 09:06:29;;;;;;;3.03;1.30;;;10.70;72.60;;;;;;2238249;56;21072;-68
2023/03/28 09:16:05;;;;;;;4.85;1.55;;;10.80;71.90;;;;;;2460366;56;21536;-70
2023/03/28 09:22:16;;;;;;;1.95;0.90;;;11.10;69.80;;;;;;2238438;56;21035;-67
2023/03/28 09:26:31;;;;;;;3.30;1.00;;;11.20;69.80;;;;;;2237943;56;21425;-70
2023/03/28 09:29:09;;;;;;;2.62;1.00;;;11.30;70.00;;;;;;2237376;55;21414;-69
2023/03/28 09:32:29;;;;;;;4.20;1.40;;;11.30;70.50;;;;;;2245921;56;20978;-69
2023/03/28 09:34:55;;;;;;;4.90;1.60;;;11.40;69.20;;;;;;2460729;56;21039;-69
2023/03/28 09:40:02;;;;;;;2.47;1.15;;;11.40;71.10;;;;;;2239082;56;20988;-69
2023/03/28 09:42:59;;;;;;;2.62;1.10;;;11.40;68.40;;;;;;2462205;56;21031;-70
2023/03/28 09:45:52;;;;;;;2.72;1.10;;;11.50;69.70;;;;;;2238248;56;21586;-71
2023/03/28 09:48:28;;;;;;;3.28;1.02;;;11.50;69.00;;;;;;2461878;55;20976;-69
2023/03/28 09:50:56;;;;;;;3.78;1.33;;;11.50;69.90;;;;;;2461023;55;20974;-70
2023/03/28 09:53:27;;;;;;;2.58;1.27;;;11.50;70.10;;;;;;2461324;55;20999;-70
2023/03/28 09:56:20;;;;;;;3.75;1.12;;;11.50;69.70;;;;;;2460559;55;20996;-69
2023/03/28 09:58:57;;;;;;;4.82;1.50;;;11.60;69.50;;;;;;2461946;56;21035;-69
2023/03/28 10:01:34;;;;;;;2.60;1.35;;;11.60;69.60;;;;;;2244261;56;20966;-69
2023/03/28 10:04:01;;;;;;;3.25;1.48;;;11.70;69.80;;;;;;2236327;55;21003;-70
2023/03/28 10:06:28;;;;;;;4.03;1.58;;;11.60;70.20;;;;;;2461620;55;21564;-72
2023/03/28 10:09:21;;;;;;;2.80;1.40;;;11.70;70.20;;;;;;2239656;56;20987;-69
2023/03/28 10:12:02;;;;;;;3.33;1.50;;;11.70;68.90;;;;;;2460660;55;21072;-69
2023/03/28 10:14:37;;;;;;;2.92;1.10;;;11.80;69.40;;;;;;2462500;56;21039;-71
2023/03/28 10:17:19;;;;;;;3.95;1.23;;;11.80;70.00;;;;;;2237810;56;20963;-69
2023/03/28 10:19:46;;;;;;;3.35;1.37;;;11.90;70.10;;;;;;2462266;56;20944;-71
2023/03/28 10:22:38;;;;;;;3.83;1.45;;;11.90;70.20;;;;;;2238007;56;20971;-69
2023/03/28 10:25:05;;;;;;;3.25;1.37;;;11.90;69.30;;;;;;2237856;55;21123;-69
2023/03/28 10:27:34;;;;;;;3.85;1.33;;;12.00;69.80;;;;;;2238630;56;20988;-69
2023/03/28 10:31:54;;;;;;;4.12;1.80;;;12.00;69.70;;;;;;2461387;55;21028;-69
2023/03/28 10:34:25;;;;;;;4.43;2.00;;;11.90;67.00;;;;;;2462125;56;20976;-71
2023/03/28 10:36:53;;;;;;;3.58;1.77;;;12.10;69.20;;;;;;2237325;56;21063;-69
2023/03/28 10:39:29;;;;;;;3.83;1.80;;;12.10;69.60;;;;;;2461736;56;22138;-69
2023/03/28 10:41:59;;;;;;;4.72;1.87;;;12.20;69.00;;;;;;2237920;55;21551;-69
2023/03/28 10:44:35;;;;;;;3.40;1.58;;;12.20;70.00;;;;;;2239068;56;21007;-69
2023/03/28 10:47:03;;;;;;;4.65;1.60;;;12.30;70.20;;;;;;2237543;56;21083;-69
2023/03/28 10:49:37;;;;;;;11.85;4.80;;;12.30;69.90;;;;;;2461970;55;20976;-69
2023/03/28 10:52:38;;;;;;;8.30;3.35;;;12.40;70.00;;;;;;2461122;56;21031;-69
2023/03/28 10:55:15;;;;;;;5.82;2.30;;;12.50;68.60;;;;;;2461329;55;21591;-70
2023/03/28 10:58:03;;;;;;;4.32;1.92;;;12.50;68.80;;;;;;2462407;56;20976;-70
2023/03/28 11:00:40;;;;;;;3.00;1.55;;;12.60;68.00;;;;;;2238123;56;21115;-68
2023/03/28 11:03:33;;;;;;;3.70;1.48;;;12.60;68.90;;;;;;2460735;56;21020;-69
2023/03/28 11:06:22;;;;;;;3.40;1.42;;;12.60;67.20;;;;;;2461757;55;20992;-70
2023/03/28 11:09:12;;;;;;;3.53;1.27;;;12.70;67.30;;;;;;2458861;55;21851;-71
2023/03/28 11:12:02;;;;;;;4.75;1.17;;;12.70;68.20;;;;;;2461660;56;21432;-70
2023/03/28 11:15:01;;;;;;;3.28;1.27;;;12.70;68.20;;;;;;2238705;55;21002;-72
2023/03/28 11:20:39;;;;;;;4.12;1.40;;;12.80;67.20;;;;;;2460147;55;21046;-71
2023/03/28 11:27:15;;;;;;;3.58;1.40;;;12.80;67.90;;;;;;2460838;55;21052;-70
2023/03/28 11:30:08;;;;;;;2.60;1.10;;;13.10;67.40;;;;;;2238175;56;20960;-70
2023/03/28 11:32:49;;;;;;;3.45;1.00;;;13.20;68.90;;;;;;2238396;56;20984;-71
2023/03/28 11:35:38;;;;;;;4.15;1.23;;;13.30;69.80;;;;;;2461407;56;20959;-69
2023/03/28 11:40:00;;;;;;;3.25;1.20;;;13.40;68.50;;;;;;2237381;56;21090;-70
2023/03/28 11:42:45;;;;;;;2.50;1.15;;;13.50;67.30;;;;;;2461349;56;20972;-70
2023/03/28 11:45:23;;;;;;;4.95;1.40;;;13.50;70.10;;;;;;2237601;56;20968;-72
2023/03/28 11:48:24;;;;;;;3.00;1.40;;;13.60;69.10;;;;;;2237146;56;21375;-70
2023/03/28 11:51:30;;;;;;;4.00;1.65;;;13.70;68.70;;;;;;2461036;56;21047;-71
2023/03/28 11:54:23;;;;;;;2.55;1.10;;;13.70;67.60;;;;;;2460583;55;21050;-70
2023/03/28 11:57:10;;;;;;;2.72;1.20;;;13.80;67.40;;;;;;2461234;55;21034;-71
2023/03/28 12:00:05;;;;;;;2.92;1.45;;;13.80;68.00;;;;;;2462018;55;21012;-71
2023/03/28 12:02:51;;;;;;;2.50;1.23;;;13.80;67.50;;;;;;2461772;56;21000;-70
2023/03/28 12:05:36;;;;;;;2.60;1.10;;;13.90;68.70;;;;;;2238493;55;21135;-71
2023/03/28 12:08:35;;;;;;;2.75;1.35;;;13.90;68.50;;;;;;2241110;55;21054;-71
2023/03/28 12:11:05;;;;;;;4.10;1.42;;;14.00;69.40;;;;;;2236508;56;21004;-70
2023/03/28 12:14:46;;;;;;;2.80;1.40;;;14.10;69.60;;;;;;2462106;56;21399;-73
2023/03/28 12:17:27;;;;;;;3.83;1.30;;;14.10;68.00;;;;;;2460531;56;21107;-71
2023/03/28 12:19:53;;;;;;;3.28;1.37;;;14.20;68.40;;;;;;2461633;55;21012;-72
2023/03/28 12:22:29;;;;;;;23.05;12.70;;;14.20;69.40;;;;;;2461287;55;20937;-71
2023/03/28 12:28:33;;;;;;;18.33;10.88;;;14.30;69.00;;;;;;2237517;56;21490;-73
2023/03/28 12:31:20;;;;;;;7.60;4.70;;;14.30;68.40;;;;;;2461079;56;20995;-68
2023/03/28 12:34:16;;;;;;;9.30;3.35;;;14.40;68.60;;;;;;2237257;55;20960;-70
2023/03/28 12:37:32;;;;;;;4.55;2.28;;;14.40;67.70;;;;;;2461877;56;21055;-72
2023/03/28 12:40:22;;;;;;;6.10;2.20;;;14.50;66.60;;;;;;2237895;56;21044;-72
2023/03/28 12:42:48;;;;;;;4.87;1.87;;;14.50;67.50;;;;;;2238395;55;20944;-71
2023/03/28 12:45:43;;;;;;;3.72;1.60;;;14.60;70.00;;;;;;2237906;56;21004;-72
2023/03/28 12:48:40;;;;;;;2.70;1.40;;;14.70;68.00;;;;;;2461780;56;21469;-70
2023/03/28 12:51:23;;;;;;;3.30;1.37;;;14.80;67.50;;;;;;2461737;55;21837;-71
2023/03/28 12:57:43;;;;;;;3.47;1.33;;;14.90;68.20;;;;;;2462033;56;21024;-71
2023/03/28 13:03:55;;;;;;;3.60;1.15;;;15.00;67.00;;;;;;2237695;56;21020;-68
2023/03/28 13:06:40;;;;;;;2.55;0.95;;;15.10;66.60;;;;;;2462171;55;21047;-69
2023/03/28 13:09:44;;;;;;;2.35;1.05;;;15.10;67.70;;;;;;2461053;56;21038;-74
2023/03/28 13:12:52;;;;;;;2.65;1.30;;;15.20;66.80;;;;;;2459657;56;21048;-74
2023/03/28 13:15:31;;;;;;;3.25;1.02;;;15.10;66.10;;;;;;2238468;56;20940;-72
2023/03/28 13:18:25;;;;;;;4.40;1.35;;;15.20;67.30;;;;;;2241684;56;20990;-76
2023/03/28 13:20:51;;;;;;;2.42;1.08;;;15.20;66.60;;;;;;2461097;55;20944;-72
2023/03/28 13:24:01;;;;;;;3.78;1.37;;;15.20;68.60;;;;;;2461939;56;21060;-76
2023/03/28 13:27:05;;;;;;;3.42;1.50;;;15.20;68.50;;;;;;2462485;56;21501;-73
2023/03/28 13:29:51;;;;;;;4.10;1.60;;;15.30;67.50;;;;;;2238403;56;21019;-74
2023/03/28 13:32:21;;;;;;;2.62;1.02;;;15.40;67.20;;;;;;2461916;56;21012;-73
2023/03/28 13:34:58;;;;;;;3.10;1.15;;;15.40;69.30;;;;;;2238308;56;20988;-74
2023/03/28 13:37:46;;;;;;;2.60;1.20;;;15.50;68.70;;;;;;2462217;56;20980;-73
2023/03/28 13:40:45;;;;;;;3.67;1.40;;;15.60;68.10;;;;;;2237804;56;21962;-75
2023/03/28 13:43:34;;;;;;;2.83;1.58;;;15.60;66.60;;;;;;2237986;56;20960;-74
2023/03/28 13:46:08;;;;;;;3.28;1.40;;;15.70;66.60;;;;;;2461447;56;21044;-75
2023/03/28 13:48:44;;;;;;;4.00;1.10;;;15.70;67.70;;;;;;2462239;56;21548;-73
2023/03/28 13:51:15;;;;;;;2.58;1.05;;;15.70;66.80;;;;;;2238161;56;20987;-72
2023/03/28 13:53:47;;;;;;;2.65;1.12;;;15.70;67.10;;;;;;2462281;55;20992;-72
2023/03/28 13:56:25;;;;;;;2.50;1.00;;;15.60;67.00;;;;;;2238083;56;20980;-70
2023/03/28 13:58:54;;;;;;;2.42;1.12;;;15.60;65.50;;;;;;2461496;56;21016;-72
2023/03/28 14:02:54;;;;;;;2.33;1.08;;;15.60;67.00;;;;;;2237917;56;21039;-71
2023/03/28 14:05:24;;;;;;;2.85;1.25;;;15.60;66.90;;;;;;2245300;56;21065;-71
2023/03/28 14:07:54;;;;;;;3.10;1.40;;;15.60;67.30;;;;;;2237622;56;21016;-71
2023/03/28 14:10:34;;;;;;;2.97;1.45;;;15.50;67.10;;;;;;2238273;56;21048;-72
2023/03/28 14:13:05;;;;;;;3.78;1.20;;;15.50;65.10;;;;;;2461670;56;20952;-71
2023/03/28 14:15:44;;;;;;;4.12;1.35;;;15.50;66.30;;;;;;2238790;56;21004;-71
2023/03/28 14:18:18;;;;;;;3.78;1.40;;;15.50;66.50;;;;;;2461096;55;20985;-70
2023/03/28 14:20:44;;;;;;;4.37;1.20;;;15.50;66.10;;;;;;2238041;55;21000;-70
2023/03/28 14:24:33;;;;;;;3.75;1.25;;;15.50;67.00;;;;;;2238179;56;21040;-72
2023/03/28 14:27:07;;;;;;;3.03;0.80;;;15.50;64.20;;;;;;2241328;56;21591;-70
2023/03/28 14:29:33;;;;;;;4.82;1.77;;;15.50;66.80;;;;;;2238866;55;21032;-73
2023/03/28 14:32:04;;;;;;;2.30;1.10;;;15.50;67.70;;;;;;2462058;56;20996;-70